Time;durP1;ratioP1;P1;durP2;ratioP2;P2;SDS_P1;SDS_P2;PMS_P1;PMS_P2;Temp;Humidity;BMP_temperature;BMP_pressure;BME280_temperature;BME280_humidity;BME280_pressure;Samples;Min_cycle;Max_cycle;Signal;HPM_P1;HPM_P2
2021/05/14 00:01:34;;;;;;;13.80;8.63;;;;;;;9.04;100.00;96746.22;4972573;28;20046;-79
2021/05/14 00:04:01;;;;;;;17.88;9.68;;;;;;;9.11;100.00;96738.41;4972418;28;20078;-77
2021/05/14 00:06:28;;;;;;;17.67;9.30;;;;;;;9.13;100.00;96745.06;4935736;29;20047;-77
2021/05/14 00:08:54;;;;;;;18.10;8.77;;;;;;;9.09;100.00;96754.94;4953011;29;20047;-77
2021/05/14 00:11:21;;;;;;;15.90;8.57;;;;;;;9.09;100.00;96749.53;4936211;29;20435;-77
2021/05/14 00:13:47;;;;;;;16.10;9.00;;;;;;;9.04;100.00;96744.31;4952986;29;20055;-77
2021/05/14 00:16:14;;;;;;;18.25;8.73;;;;;;;9.02;100.00;96751.16;4953743;29;20054;-78
2021/05/14 00:18:41;;;;;;;16.77;9.48;;;;;;;9.11;100.00;96739.19;4953737;29;20507;-77
2021/05/14 00:21:07;;;;;;;15.20;9.05;;;;;;;9.22;100.00;96743.09;4936089;29;20047;-78
2021/05/14 00:23:34;;;;;;;23.90;10.30;;;;;;;9.18;100.00;96747.56;4953326;29;20106;-78
2021/05/14 00:26:00;;;;;;;14.27;8.90;;;;;;;9.28;100.00;96754.50;4936172;29;20059;-78
2021/05/14 00:28:27;;;;;;;17.42;9.32;;;;;;;9.27;100.00;96751.00;4964001;28;20042;-77
2021/05/14 00:30:53;;;;;;;16.00;10.00;;;;;;;9.31;100.00;96753.84;4939160;28;20050;-77
2021/05/14 00:33:20;;;;;;;15.30;8.75;;;;;;;9.30;100.00;96742.25;4972062;28;20164;-77
2021/05/14 00:35:47;;;;;;;13.30;8.43;;;;;;;9.35;100.00;96736.66;5016713;23;20045;-78
2021/05/14 00:38:14;;;;;;;14.45;8.82;;;;;;;9.33;100.00;96740.81;5028806;28;20057;-77
2021/05/14 00:40:40;;;;;;;15.43;9.30;;;;;;;9.32;100.00;96734.59;5028202;28;20051;-77
2021/05/14 00:43:07;;;;;;;15.20;9.05;;;;;;;9.37;100.00;96736.31;5024167;28;20596;-76
2021/05/14 00:45:34;;;;;;;10.80;8.07;;;;;;;9.37;100.00;96733.59;5045754;28;20049;-75
2021/05/14 00:48:03;;;;;;;12.63;8.52;;;;;;;9.33;100.00;96748.91;5029949;28;20055;-76
2021/05/14 00:50:30;;;;;;;18.58;9.85;;;;;;;9.29;100.00;96746.06;5025999;28;20083;-76
2021/05/14 00:52:57;;;;;;;16.45;9.77;;;;;;;9.30;100.00;96746.84;5021008;28;20045;-78
2021/05/14 00:55:24;;;;;;;14.35;9.02;;;;;;;9.22;100.00;96745.00;5058025;28;20052;-77
2021/05/14 00:57:50;;;;;;;13.07;8.73;;;;;;;9.16;100.00;96738.22;5049018;28;20132;-77
2021/05/14 01:00:17;;;;;;;13.48;8.90;;;;;;;9.19;100.00;96738.34;5070812;28;20063;-77
2021/05/14 01:02:45;;;;;;;16.30;9.13;;;;;;;9.13;100.00;96730.78;5050822;28;20044;-77
2021/05/14 01:05:14;;;;;;;17.48;8.68;;;;;;;9.12;100.00;96745.38;5066208;28;20041;-77
2021/05/14 01:07:41;;;;;;;17.83;9.45;;;;;;;9.13;100.00;96742.38;5069017;28;20076;-76
2021/05/14 01:10:08;;;;;;;20.02;9.68;;;;;;;9.14;100.00;96740.44;5049703;28;20090;-77
2021/05/14 01:12:34;;;;;;;15.90;9.88;;;;;;;9.15;100.00;96747.44;5067746;28;20048;-77
2021/05/14 01:15:02;;;;;;;16.85;9.52;;;;;;;9.17;100.00;96745.19;5050163;28;20040;-77
2021/05/14 01:17:30;;;;;;;15.55;9.45;;;;;;;9.18;100.00;96744.88;5052700;28;20041;-77
2021/05/14 01:19:58;;;;;;;18.30;8.98;;;;;;;9.23;100.00;96741.19;5050864;28;20033;-77
2021/05/14 01:22:27;;;;;;;15.15;9.10;;;;;;;9.25;100.00;96741.66;5066155;28;20036;-77
2021/05/14 01:24:54;;;;;;;14.63;8.98;;;;;;;9.23;100.00;96744.69;5067121;28;20051;-77
2021/05/14 01:27:22;;;;;;;16.42;8.80;;;;;;;9.31;100.00;96734.94;5051304;28;20045;-77
2021/05/14 01:29:49;;;;;;;15.50;8.05;;;;;;;9.30;100.00;96738.75;5033118;28;20049;-78
2021/05/14 01:32:17;;;;;;;13.23;7.25;;;;;;;9.35;100.00;96728.56;5063949;28;20515;-76
2021/05/14 01:34:46;;;;;;;15.73;8.52;;;;;;;9.37;100.00;96733.59;5067108;28;20056;-79
2021/05/14 01:37:13;;;;;;;13.57;8.85;;;;;;;9.28;100.00;96727.50;5034313;28;20049;-77
2021/05/14 01:39:39;;;;;;;21.35;9.18;;;;;;;9.28;100.00;96738.28;5050280;28;20067;-78
2021/05/14 01:42:06;;;;;;;14.77;8.98;;;;;;;9.26;100.00;96727.84;5046964;28;20219;-77
2021/05/14 01:44:35;;;;;;;17.25;9.40;;;;;;;9.17;100.00;96731.69;5042715;28;20067;-78
2021/05/14 01:47:04;;;;;;;13.93;8.13;;;;;;;9.13;100.00;96725.38;5071149;28;20035;-77
2021/05/14 01:49:31;;;;;;;18.20;9.52;;;;;;;9.14;100.00;96718.84;5033693;28;20113;-78
2021/05/14 01:51:58;;;;;;;17.50;9.85;;;;;;;9.17;100.00;96729.00;5062772;28;20041;-77
2021/05/14 01:54:25;;;;;;;20.60;8.95;;;;;;;9.26;100.00;96713.53;5039731;28;20215;-79
2021/05/14 01:56:52;;;;;;;13.50;9.00;;;;;;;9.26;100.00;96716.25;5051212;28;20041;-78
2021/05/14 01:59:19;;;;;;;12.85;8.85;;;;;;;9.27;100.00;96715.91;5050867;28;20093;-77
2021/05/14 02:01:45;;;;;;;20.45;9.32;;;;;;;9.43;100.00;96712.59;5068753;28;20045;-77
2021/05/14 02:04:14;;;;;;;17.60;10.00;;;;;;;9.37;100.00;96714.72;5049772;28;20079;-77
2021/05/14 02:06:41;;;;;;;21.33;10.63;;;;;;;9.44;100.00;96720.41;5049925;28;20060;-76
2021/05/14 02:09:11;;;;;;;17.48;10.80;;;;;;;9.48;100.00;96712.41;5051437;28;20041;-78
2021/05/14 02:11:37;;;;;;;25.73;13.00;;;;;;;9.44;100.00;96709.59;5038850;28;20460;-77
2021/05/14 02:14:04;;;;;;;23.50;14.93;;;;;;;9.52;100.00;96713.34;5050575;28;20470;-77
2021/05/14 02:16:31;;;;;;;22.45;13.43;;;;;;;9.52;100.00;96706.03;5066843;28;20511;-77
2021/05/14 02:18:58;;;;;;;24.58;13.45;;;;;;;9.52;100.00;96703.34;5051248;28;20452;-76
2021/05/14 02:21:24;;;;;;;21.63;13.85;;;;;;;9.52;100.00;96710.63;5064360;28;20048;-77
2021/05/14 02:23:51;;;;;;;27.20;15.32;;;;;;;9.55;100.00;96710.75;5048902;28;20059;-77
2021/05/14 02:26:18;;;;;;;31.65;14.57;;;;;;;9.55;100.00;96713.44;5033286;28;20053;-76
2021/05/14 02:28:47;;;;;;;24.17;14.55;;;;;;;9.56;100.00;96706.94;5050966;28;20068;-76
2021/05/14 02:31:14;;;;;;;24.30;14.32;;;;;;;9.56;100.00;96706.94;5065610;28;20076;-77
2021/05/14 02:33:40;;;;;;;22.65;14.75;;;;;;;9.56;100.00;96695.34;5057535;28;20285;-76
2021/05/14 02:36:07;;;;;;;26.25;15.10;;;;;;;9.57;100.00;96703.13;5048311;28;20101;-76
2021/05/14 02:38:34;;;;;;;22.25;14.95;;;;;;;9.56;100.00;96698.03;5032382;28;20061;-76
2021/05/14 02:41:04;;;;;;;22.92;14.48;;;;;;;9.54;100.00;96703.78;5031088;28;20068;-76
2021/05/14 02:43:31;;;;;;;25.80;13.93;;;;;;;9.60;100.00;96697.03;5046807;28;20060;-75
2021/05/14 02:45:58;;;;;;;28.17;14.57;;;;;;;9.64;100.00;96703.38;5042687;28;20548;-75
2021/05/14 02:48:24;;;;;;;22.92;14.43;;;;;;;9.59;100.00;96695.47;5044536;28;20057;-76
2021/05/14 02:50:51;;;;;;;25.73;15.43;;;;;;;9.58;100.00;96707.38;5047428;28;20052;-76
2021/05/14 02:53:20;;;;;;;22.80;15.10;;;;;;;9.61;100.00;96708.63;5026435;28;20049;-75
2021/05/14 02:55:47;;;;;;;18.67;14.23;;;;;;;9.60;100.00;96712.47;5029117;28;20121;-77
2021/05/14 02:58:13;;;;;;;24.80;14.50;;;;;;;9.64;100.00;96718.78;5049733;28;20050;-76
2021/05/14 03:00:40;;;;;;;22.90;14.23;;;;;;;9.65;100.00;96704.94;5047691;28;20055;-75
2021/05/14 03:03:10;;;;;;;20.83;14.18;;;;;;;9.68;100.00;96712.38;5026712;28;20438;-76
2021/05/14 03:05:37;;;;;;;24.48;13.57;;;;;;;9.73;100.00;96719.53;5047139;28;20096;-76
2021/05/14 03:08:04;;;;;;;18.80;12.93;;;;;;;9.76;100.00;96710.72;5031606;28;20096;-76
2021/05/14 03:10:30;;;;;;;20.35;13.50;;;;;;;9.78;100.00;96714.69;5008141;28;20504;-77
2021/05/14 03:12:59;;;;;;;17.05;12.38;;;;;;;9.79;100.00;96705.47;5039317;28;20046;-76
2021/05/14 03:15:26;;;;;;;21.50;12.43;;;;;;;9.83;100.00;96700.97;5029527;28;20064;-75
2021/05/14 03:17:53;;;;;;;16.88;11.35;;;;;;;9.86;100.00;96719.22;5049034;28;20042;-76
2021/05/14 03:20:20;;;;;;;17.60;11.38;;;;;;;9.86;100.00;96708.41;5046526;28;20117;-76
2021/05/14 03:22:47;;;;;;;17.73;11.13;;;;;;;9.89;100.00;96709.66;5026213;28;20042;-76
2021/05/14 03:25:14;;;;;;;20.10;12.10;;;;;;;9.84;100.00;96699.06;5030386;28;20060;-76
2021/05/14 03:27:41;;;;;;;19.48;11.35;;;;;;;9.87;100.00;96707.31;5048544;28;20080;-74
2021/05/14 03:30:09;;;;;;;18.30;11.32;;;;;;;9.85;100.00;96714.16;5044239;28;20495;-77
2021/05/14 03:32:35;;;;;;;18.60;10.93;;;;;;;9.91;100.00;96704.72;5047316;28;20055;-78
2021/05/14 03:35:04;;;;;;;15.68;10.60;;;;;;;9.90;100.00;96709.34;5029325;28;20380;-76
2021/05/14 03:37:31;;;;;;;17.45;10.80;;;;;;;9.89;100.00;96702.34;5048628;28;20038;-77
2021/05/14 03:40:02;;;;;;;18.77;10.93;;;;;;;9.94;100.00;96712.94;5046911;28;20411;-77
2021/05/14 03:42:29;;;;;;;14.20;10.50;;;;;;;9.96;100.00;96696.41;5051974;28;20056;-77
2021/05/14 03:44:56;;;;;;;15.05;10.38;;;;;;;9.94;100.00;96704.03;5028359;28;20053;-78
2021/05/14 03:47:23;;;;;;;15.85;10.63;;;;;;;9.94;100.00;96712.94;5029498;28;20076;-77
2021/05/14 03:49:51;;;;;;;14.35;9.82;;;;;;;9.89;100.00;96702.34;5028565;28;20041;-77
2021/05/14 03:52:17;;;;;;;14.35;10.07;;;;;;;9.91;100.00;96708.19;5044274;28;20485;-77
2021/05/14 03:54:44;;;;;;;16.75;10.00;;;;;;;9.92;100.00;96706.28;5030302;28;20059;-78
2021/05/14 03:57:11;;;;;;;16.70;10.73;;;;;;;9.90;100.00;96709.34;5032711;28;20128;-78
2021/05/14 03:59:38;;;;;;;15.90;10.45;;;;;;;9.89;100.00;96709.66;5014555;28;20457;-78
2021/05/14 04:02:09;;;;;;;16.98;10.93;;;;;;;9.93;100.00;96707.88;5032318;28;20167;-78
2021/05/14 04:04:36;;;;;;;20.63;10.10;;;;;;;9.93;100.00;96716.78;5031015;28;20101;-76
2021/05/14 04:07:04;;;;;;;12.93;10.15;;;;;;;9.93;100.00;96711.38;5013077;28;20543;-77
2021/05/14 04:09:34;;;;;;;15.88;10.00;;;;;;;10.01;100.00;96721.31;5034421;28;20037;-77
2021/05/14 04:14:34;;;;;;;16.15;9.63;;;;;;;10.09;100.00;96713.47;5030573;28;20330;-76
2021/05/14 04:17:20;;;;;;;16.58;9.65;;;;;;;10.06;100.00;96698.69;5017676;28;20454;-76
2021/05/14 04:19:48;;;;;;;14.65;9.38;;;;;;;10.10;100.00;96710.41;5013034;28;20301;-77
2021/05/14 04:22:14;;;;;;;12.95;8.43;;;;;;;10.13;100.00;96703.56;5031436;28;20053;-77
2021/05/14 04:24:41;;;;;;;13.88;8.73;;;;;;;10.09;100.00;96708.81;4997737;28;20056;-78
2021/05/14 04:27:07;;;;;;;11.65;8.55;;;;;;;10.02;100.00;96712.06;5013942;28;20041;-76
2021/05/14 04:29:34;;;;;;;13.95;8.80;;;;;;;10.13;100.00;96711.69;5051144;28;20048;-76
2021/05/14 04:32:00;;;;;;;16.15;8.75;;;;;;;10.18;100.00;96712.25;5040448;28;20056;-78
2021/05/14 04:34:31;;;;;;;12.77;8.68;;;;;;;10.18;100.00;96709.56;5039457;28;20041;-69
2021/05/14 04:37:03;;;;;;;12.90;7.82;;;;;;;10.29;100.00;96718.03;5031748;28;20041;-69
2021/05/14 04:39:30;;;;;;;15.82;8.45;;;;;;;10.25;100.00;96717.91;5030727;28;20046;-69
2021/05/14 04:41:57;;;;;;;15.00;8.80;;;;;;;10.28;100.00;96719.94;5035348;28;20064;-78
2021/05/14 04:44:26;;;;;;;17.60;8.57;;;;;;;10.34;100.00;96717.81;5031750;28;20060;-77
2021/05/14 04:46:53;;;;;;;12.70;8.35;;;;;;;10.33;100.00;96717.03;5026522;28;20369;-79
2021/05/14 04:49:20;;;;;;;13.98;7.93;;;;;;;10.28;100.00;96708.34;5023541;28;20343;-79
2021/05/14 04:51:49;;;;;;;14.25;8.45;;;;;;;10.33;100.00;96718.94;5022160;28;20045;-78
2021/05/14 04:54:16;;;;;;;13.23;8.20;;;;;;;10.31;100.00;96721.19;5038404;28;20046;-77
2021/05/14 04:56:43;;;;;;;13.85;7.75;;;;;;;10.33;100.00;96724.34;5046381;28;20037;-78
2021/05/14 04:59:09;;;;;;;11.25;7.78;;;;;;;10.32;100.00;96723.59;5027223;28;20073;-77
2021/05/14 05:01:36;;;;;;;16.95;8.27;;;;;;;10.43;100.00;96713.88;5034789;28;20050;-79
2021/05/14 05:04:05;;;;;;;13.70;7.72;;;;;;;10.51;100.00;96720.31;5021682;28;20052;-78
2021/05/14 05:06:33;;;;;;;12.82;7.80;;;;;;;10.47;100.00;96725.63;5043861;28;20076;-78
2021/05/14 05:08:59;;;;;;;13.90;7.70;;;;;;;10.41;100.00;96731.59;5042150;28;20042;-79
2021/05/14 05:11:26;;;;;;;13.95;7.63;;;;;;;10.43;100.00;96730.13;5022736;28;20527;-78
2021/05/14 05:13:53;;;;;;;12.57;8.15;;;;;;;10.45;100.00;96729.81;5041068;28;20047;-78
2021/05/14 05:16:19;;;;;;;12.75;8.18;;;;;;;10.48;100.00;96737.22;5044217;28;20055;-78
2021/05/14 05:18:48;;;;;;;15.43;8.27;;;;;;;10.40;100.00;96738.91;5036051;28;20148;-79
2021/05/14 05:21:14;;;;;;;12.15;8.20;;;;;;;10.47;100.00;96741.88;5021673;28;20045;-79
2021/05/14 05:23:43;;;;;;;14.57;8.50;;;;;;;10.51;100.00;96740.06;5021082;28;20060;-78
2021/05/14 05:26:10;;;;;;;12.45;8.73;;;;;;;10.52;100.00;96741.66;5041001;28;20052;-78
2021/05/14 05:28:37;;;;;;;12.27;7.80;;;;;;;10.46;100.00;96737.56;5052716;28;20045;-80
2021/05/14 05:31:03;;;;;;;16.17;8.20;;;;;;;10.53;100.00;96756.75;5041120;28;20052;-77
2021/05/14 05:33:30;;;;;;;13.35;8.25;;;;;;;10.54;100.00;96755.63;5040489;28;20045;-79
2021/05/14 05:35:57;;;;;;;12.70;9.02;;;;;;;10.59;100.00;96752.72;5038261;28;20049;-79
2021/05/14 05:38:24;;;;;;;13.60;8.75;;;;;;;10.56;100.00;96761.50;5020696;28;20042;-79
2021/05/14 05:40:52;;;;;;;12.50;8.73;;;;;;;10.58;100.00;96770.06;5040353;28;20400;-79
2021/05/14 05:43:21;;;;;;;19.52;10.30;;;;;;;10.51;100.00;96760.91;5018521;28;20171;-78
2021/05/14 05:45:48;;;;;;;14.30;8.90;;;;;;;10.59;100.00;96763.53;5038963;28;20113;-79
2021/05/14 05:48:14;;;;;;;17.95;9.55;;;;;;;10.60;100.00;96769.75;5019418;28;20120;-78
2021/05/14 05:50:41;;;;;;;15.98;10.00;;;;;;;10.77;100.00;96779.56;5038046;28;20041;-77
2021/05/14 05:53:09;;;;;;;17.90;9.32;;;;;;;10.73;100.00;96776.75;5022161;28;20073;-78
2021/05/14 05:55:36;;;;;;;15.77;9.40;;;;;;;10.91;100.00;96782.75;5038386;28;20172;-78
2021/05/14 05:58:11;;;;;;;18.02;10.00;;;;;;;10.82;100.00;96788.25;5021166;28;20049;-76
2021/05/14 06:00:38;;;;;;;13.82;9.60;;;;;;;10.80;100.00;96790.53;5015401;28;20046;-79
2021/05/14 06:03:07;;;;;;;14.95;9.90;;;;;;;10.80;100.00;96779.69;5016777;28;20061;-78
2021/05/14 06:05:34;;;;;;;15.20;9.98;;;;;;;10.81;100.00;96805.66;5017281;28;20049;-78
2021/05/14 06:08:01;;;;;;;18.60;9.88;;;;;;;10.79;100.00;96791.63;5020469;28;20056;-77
2021/05/14 06:10:28;;;;;;;17.90;10.38;;;;;;;10.79;100.00;96788.94;5038516;28;20091;-78
2021/05/14 06:12:54;;;;;;;18.67;10.68;;;;;;;10.87;100.00;96796.16;5022443;28;20049;-78
2021/05/14 06:15:22;;;;;;;20.80;10.63;;;;;;;10.84;100.00;96796.81;5039285;28;20129;-80
2021/05/14 06:17:50;;;;;;;17.92;10.93;;;;;;;10.77;100.00;96803.94;5039085;28;20115;-76
2021/05/14 06:20:21;;;;;;;22.13;12.52;;;;;;;10.84;100.00;96807.66;5021284;28;20141;-77
2021/05/14 06:22:47;;;;;;;18.70;11.60;;;;;;;10.88;100.00;96810.50;5003825;28;20072;-77
2021/05/14 06:25:14;;;;;;;21.50;11.80;;;;;;;10.92;100.00;96812.19;5018174;28;20053;-78
2021/05/14 06:27:41;;;;;;;21.17;12.02;;;;;;;10.90;100.00;96808.22;5025826;28;20041;-78
2021/05/14 06:30:09;;;;;;;18.95;12.27;;;;;;;10.99;100.00;96820.56;5041008;28;20048;-78
2021/05/14 06:32:36;;;;;;;16.60;10.23;;;;;;;11.02;100.00;96813.69;5042501;28;20037;-78
2021/05/14 06:37:37;;;;;;;17.60;10.93;;;;;;;10.97;100.00;96822.78;4946963;29;20083;-77
2021/05/14 06:40:05;;;;;;;20.52;12.20;;;;;;;11.01;100.00;96815.59;4949004;28;20043;-76
2021/05/14 06:42:32;;;;;;;21.58;12.02;;;;;;;10.87;100.00;96828.66;4950051;29;20058;-77
2021/05/14 06:44:58;;;;;;;18.88;11.85;;;;;;;10.98;100.00;96831.72;4950533;28;20051;-77
2021/05/14 06:47:25;;;;;;;23.60;13.95;;;;;;;10.95;100.00;96822.34;4987540;28;20058;-75
2021/05/14 06:49:52;;;;;;;22.98;13.43;;;;;;;10.94;100.00;96838.94;4987690;28;20039;-75
2021/05/14 06:52:18;;;;;;;22.20;12.32;;;;;;;10.83;100.00;96825.03;4991126;28;20573;-74
2021/05/14 06:54:46;;;;;;;23.73;13.30;;;;;;;10.82;100.00;96841.59;5005592;28;20042;-75
2021/05/14 06:57:12;;;;;;;19.25;13.90;;;;;;;10.83;100.00;96845.91;4988218;28;20042;-75
2021/05/14 06:59:39;;;;;;;22.02;14.07;;;;;;;10.85;100.00;96840.94;4988682;28;20061;-76
2021/05/14 07:02:05;;;;;;;25.10;14.95;;;;;;;10.82;100.00;96841.59;4986735;28;20097;-76
2021/05/14 07:04:32;;;;;;;28.15;14.27;;;;;;;10.89;100.00;96848.06;4988112;28;20049;-78
2021/05/14 07:06:59;;;;;;;20.08;13.50;;;;;;;10.90;100.00;96854.25;4988716;28;20059;-75
2021/05/14 07:09:25;;;;;;;21.02;13.38;;;;;;;10.84;100.00;96852.91;4977776;28;20038;-75
2021/05/14 07:11:52;;;;;;;22.48;12.55;;;;;;;10.75;100.00;96852.19;4976964;28;20254;-76
2021/05/14 07:14:19;;;;;;;20.30;11.80;;;;;;;10.75;100.00;96853.00;4970624;28;20058;-75
2021/05/14 07:16:46;;;;;;;20.08;11.93;;;;;;;10.75;100.00;96853.00;4968025;28;20047;-76
2021/05/14 07:19:14;;;;;;;21.70;13.02;;;;;;;10.79;100.00;96867.44;4969203;28;20625;-76
2021/05/14 07:21:41;;;;;;;24.75;13.15;;;;;;;10.79;100.00;96850.44;4968279;28;20057;-76
2021/05/14 07:24:09;;;;;;;25.98;13.20;;;;;;;10.85;100.00;96849.06;4999032;28;20058;-76
2021/05/14 07:26:36;;;;;;;19.98;12.32;;;;;;;10.92;100.00;96844.69;4967358;28;20061;-78
2021/05/14 07:29:18;;;;;;;19.33;11.88;;;;;;;10.86;100.00;96850.66;4982990;28;20054;-77
2021/05/14 07:31:44;;;;;;;22.08;13.18;;;;;;;10.85;100.00;96854.47;4968166;28;20319;-77
2021/05/14 07:34:11;;;;;;;21.50;13.25;;;;;;;10.79;100.00;96861.25;4978184;28;20118;-77
2021/05/14 07:36:58;;;;;;;18.98;12.88;;;;;;;10.78;100.00;96851.53;4989046;28;20261;-76
2021/05/14 07:39:25;;;;;;;18.60;12.35;;;;;;;10.74;100.00;96854.13;4987503;28;20060;-76
2021/05/14 07:41:52;;;;;;;22.20;13.48;;;;;;;10.75;100.00;96866.53;4987219;28;20517;-76
2021/05/14 07:44:21;;;;;;;19.10;12.90;;;;;;;10.69;100.00;96856.25;4987909;28;20117;-76
2021/05/14 07:46:49;;;;;;;26.40;14.70;;;;;;;10.77;100.00;96864.28;5001623;28;20124;-76
2021/05/14 07:49:16;;;;;;;24.40;13.70;;;;;;;10.80;100.00;96860.91;5002597;28;20570;-75
2021/05/14 07:51:42;;;;;;;24.08;13.77;;;;;;;10.94;100.00;96871.44;4987365;28;20042;-75
2021/05/14 07:54:09;;;;;;;23.80;14.88;;;;;;;10.95;100.00;96871.09;5002809;28;20054;-76
2021/05/14 07:56:37;;;;;;;21.80;12.60;;;;;;;10.84;100.00;96856.38;4987662;28;20057;-76
2021/05/14 07:59:06;;;;;;;25.80;13.07;;;;;;;10.95;100.00;96865.69;4988528;28;20050;-75
2021/05/14 08:01:32;;;;;;;19.17;13.15;;;;;;;11.15;100.00;96859.38;4986554;28;20050;-76
2021/05/14 08:03:59;;;;;;;20.60;12.27;;;;;;;11.35;100.00;96860.44;4988069;28;20050;-77
2021/05/14 08:06:26;;;;;;;18.52;11.45;;;;;;;11.53;100.00;96861.00;4986886;28;20057;-76
2021/05/14 08:08:54;;;;;;;19.00;11.55;;;;;;;11.86;100.00;96854.31;4999579;28;20056;-77
2021/05/14 08:11:21;;;;;;;20.20;11.52;;;;;;;12.28;100.00;96849.34;4997850;28;20133;-75
2021/05/14 08:13:48;;;;;;;16.05;10.73;;;;;;;12.74;100.00;96847.09;4988207;28;20065;-75
2021/05/14 08:16:14;;;;;;;14.68;7.20;;;;;;;12.86;100.00;96844.31;4988534;28;20046;-75
2021/05/14 08:18:41;;;;;;;11.68;6.50;;;;;;;12.77;100.00;96830.13;5003893;28;20050;-76
2021/05/14 08:21:07;;;;;;;10.73;6.35;;;;;;;12.64;100.00;96837.56;5002784;28;20051;-75
2021/05/14 08:23:34;;;;;;;9.40;6.00;;;;;;;12.44;100.00;96830.38;4987766;28;20050;-76
2021/05/14 08:26:01;;;;;;;10.15;5.95;;;;;;;12.38;100.00;96832.59;5002210;28;20042;-76
2021/05/14 08:28:28;;;;;;;10.93;5.90;;;;;;;12.12;100.00;96843.06;4978407;28;20531;-76
2021/05/14 08:30:57;;;;;;;11.25;5.53;;;;;;;11.93;100.00;96839.38;4999615;28;20591;-76
2021/05/14 08:33:26;;;;;;;11.45;6.68;;;;;;;11.82;100.00;96831.72;4991445;28;20515;-76
2021/05/14 08:35:54;;;;;;;13.25;6.68;;;;;;;11.92;100.00;96832.38;5003873;28;20456;-76
2021/05/14 08:38:20;;;;;;;11.30;5.68;;;;;;;12.05;100.00;96847.50;5002134;28;20050;-76
2021/05/14 08:40:47;;;;;;;14.68;5.90;;;;;;;11.75;100.00;96833.41;4986458;28;20058;-76
2021/05/14 08:43:15;;;;;;;13.35;6.72;;;;;;;11.88;100.00;96840.41;4987430;28;20046;-76
2021/05/14 08:45:43;;;;;;;11.85;6.53;;;;;;;11.93;100.00;96840.16;4985403;28;20378;-76
2021/05/14 08:48:14;;;;;;;8.25;4.35;;;;;;;12.07;100.00;96840.59;4980534;28;20058;-76
2021/05/14 08:50:41;;;;;;;10.55;4.22;;;;;;;12.39;100.00;96838.78;4984977;28;20048;-75
2021/05/14 08:53:29;;;;;;;8.73;4.20;;;;;;;12.88;100.00;96831.97;4987616;28;20046;-75
2021/05/14 08:55:57;;;;;;;5.70;2.78;;;;;;;12.81;100.00;96839.13;5002361;28;20441;-76
2021/05/14 08:58:23;;;;;;;7.20;2.40;;;;;;;12.53;100.00;96836.47;5004801;28;20046;-76
2021/05/14 09:00:50;;;;;;;5.80;2.60;;;;;;;12.71;100.00;96835.00;5005120;28;20129;-76
2021/05/14 09:03:19;;;;;;;5.72;2.42;;;;;;;12.50;100.00;96835.22;5006361;28;20046;-76
2021/05/14 09:05:47;;;;;;;6.05;2.60;;;;;;;12.88;100.00;96826.53;5006561;28;20407;-77
2021/05/14 09:08:25;;;;;;;6.00;2.55;;;;;;;12.96;100.00;96832.94;4997884;28;20046;-76
2021/05/14 09:10:52;;;;;;;8.50;2.90;;;;;;;13.07;100.00;96842.19;4992201;28;20049;-75
2021/05/14 09:13:19;;;;;;;7.53;2.90;;;;;;;12.97;100.00;96835.31;5005426;28;20050;-76
2021/05/14 09:15:46;;;;;;;9.50;3.75;;;;;;;12.76;100.00;96844.81;4989490;28;20416;-76
2021/05/14 09:18:23;;;;;;;7.82;3.50;;;;;;;12.62;100.00;96842.50;4990429;28;20042;-76
2021/05/14 09:21:00;;;;;;;6.93;3.63;;;;;;;12.82;100.00;96851.59;4994053;28;20053;-75
2021/05/14 09:23:30;;;;;;;7.80;3.88;;;;;;;13.00;100.00;96847.41;4993715;28;20042;-75
2021/05/14 09:26:07;;;;;;;13.93;3.90;;;;;;;12.99;100.00;96849.34;4993190;28;20068;-76
2021/05/14 09:28:38;;;;;;;9.63;3.90;;;;;;;12.69;100.00;96855.50;4993813;28;20544;-74
2021/05/14 09:31:14;;;;;;;8.60;4.63;;;;;;;12.66;100.00;96851.56;4994299;28;20129;-77
2021/05/14 09:33:45;;;;;;;9.60;4.40;;;;;;;12.80;100.00;96854.63;4982702;28;20065;-76
2021/05/14 09:36:16;;;;;;;11.07;5.10;;;;;;;13.10;100.00;96855.88;5013260;28;20044;-76
2021/05/14 09:38:44;;;;;;;10.68;4.15;;;;;;;13.42;100.00;96853.91;4996140;28;20444;-76
2021/05/14 09:41:34;;;;;;;10.02;4.28;;;;;;;13.71;100.00;96852.66;5013966;28;20109;-75
2021/05/14 09:44:04;;;;;;;7.78;4.40;;;;;;;13.91;100.00;96851.56;4996688;28;20034;-76
2021/05/14 09:46:31;;;;;;;7.72;4.03;;;;;;;13.86;100.00;96849.13;5013390;28;20054;-76
2021/05/14 09:48:58;;;;;;;8.43;4.43;;;;;;;14.21;100.00;96846.38;5013528;28;20518;-76
2021/05/14 09:51:27;;;;;;;9.82;4.10;;;;;;;14.59;100.00;96843.69;5012840;28;20552;-76
2021/05/14 09:53:54;;;;;;;8.40;3.80;;;;;;;14.76;100.00;96845.19;5004463;28;20448;-78
2021/05/14 09:56:32;;;;;;;7.70;4.00;;;;;;;14.94;100.00;96844.34;4991357;28;20132;-78
2021/05/14 09:59:00;;;;;;;8.93;4.07;;;;;;;13.93;100.00;96849.28;4999607;28;20201;-76
2021/05/14 10:01:29;;;;;;;10.60;5.15;;;;;;;13.57;100.00;96847.72;5006510;28;20046;-76
2021/05/14 10:03:56;;;;;;;10.93;5.20;;;;;;;13.27;100.00;96843.84;4992468;28;20124;-77
2021/05/14 10:06:24;;;;;;;13.70;5.65;;;;;;;13.04;100.00;96853.72;5006182;28;20050;-77
2021/05/14 10:08:52;;;;;;;7.88;5.00;;;;;;;12.80;100.00;96849.22;4991028;28;20046;-76
2021/05/14 10:11:22;;;;;;;11.73;5.78;;;;;;;12.68;100.00;96856.63;4991446;28;20053;-78
2021/05/14 10:13:49;;;;;;;12.10;5.82;;;;;;;12.71;100.00;96853.22;4991345;28;20038;-77
2021/05/14 10:16:15;;;;;;;13.23;6.60;;;;;;;12.86;100.00;96858.69;4973528;28;20042;-75
2021/05/14 10:18:46;;;;;;;12.45;6.45;;;;;;;12.85;100.00;96850.91;4991885;28;20053;-78
2021/05/14 10:21:14;;;;;;;10.40;5.95;;;;;;;12.84;100.00;96855.53;4991421;28;20046;-77
2021/05/14 10:23:56;;;;;;;10.48;6.93;;;;;;;12.71;100.00;96850.50;4987277;28;20089;-76
2021/05/14 10:26:36;;;;;;;13.20;7.10;;;;;;;12.84;100.00;96836.53;4970155;28;20092;-75
2021/05/14 10:29:13;;;;;;;10.52;6.97;;;;;;;12.75;100.00;96835.13;4990561;28;20132;-74
2021/05/14 10:31:44;;;;;;;14.63;7.80;;;;;;;12.78;100.00;96840.63;5005976;28;20457;-74
2021/05/14 10:34:13;;;;;;;13.40;7.65;;;;;;;12.90;100.00;96847.94;5001048;28;20048;-75
2021/05/14 10:36:44;;;;;;;13.38;8.40;;;;;;;12.93;100.00;96836.38;4992314;28;20068;-75
2021/05/14 10:39:15;;;;;;;15.60;8.15;;;;;;;13.19;100.00;96846.75;4979201;28;20129;-75
2021/05/14 10:42:00;;;;;;;14.20;7.28;;;;;;;13.49;100.00;96851.41;4991219;28;20046;-75
2021/05/14 10:44:46;;;;;;;12.23;7.78;;;;;;;13.40;100.00;96842.63;4990549;28;20042;-76
2021/05/14 10:47:25;;;;;;;12.73;7.15;;;;;;;13.49;100.00;96851.41;4990537;28;20053;-76
2021/05/14 10:50:03;;;;;;;11.00;6.43;;;;;;;13.73;100.00;96842.22;4989297;28;20070;-76
2021/05/14 10:52:33;;;;;;;10.15;6.28;;;;;;;14.16;100.00;96838.50;4971119;28;20454;-75
2021/05/14 10:55:00;;;;;;;10.02;5.82;;;;;;;14.21;100.00;96840.94;4985697;28;20045;-75
2021/05/14 10:57:40;;;;;;;7.03;4.63;;;;;;;14.00;100.00;96845.94;4988839;28;20070;-75
2021/05/14 11:00:22;;;;;;;8.35;4.82;;;;;;;13.92;100.00;96846.91;4989251;28;20062;-75
2021/05/14 11:03:14;;;;;;;11.65;5.40;;;;;;;13.71;100.00;96848.00;4988170;28;20050;-76
2021/05/14 11:05:47;;;;;;;8.27;5.57;;;;;;;13.64;100.00;96853.31;4986715;28;20134;-76
2021/05/14 11:08:35;;;;;;;8.55;5.38;;;;;;;13.43;100.00;96854.72;4987478;28;20050;-75
2021/05/14 11:11:10;;;;;;;13.70;7.05;;;;;;;13.31;100.00;96862.97;4985828;28;20104;-75
2021/05/14 11:13:47;;;;;;;9.75;6.72;;;;;;;13.37;100.00;96873.22;4986922;28;20050;-75
2021/05/14 11:16:34;;;;;;;14.15;7.35;;;;;;;13.55;100.00;96860.84;4987270;28;20061;-76
2021/05/14 11:19:18;;;;;;;12.07;7.65;;;;;;;13.82;100.00;96866.50;4988359;28;20057;-76
2021/05/14 11:22:16;;;;;;;12.48;7.75;;;;;;;14.59;100.00;96859.25;4986285;28;20050;-76
2021/05/14 11:24:51;;;;;;;10.82;6.72;;;;;;;15.96;100.00;96839.78;4987821;28;20054;-76
2021/05/14 11:27:27;;;;;;;11.13;5.90;;;;;;;16.06;100.00;96827.44;5004922;28;20436;-76
2021/05/14 11:30:00;;;;;;;8.73;6.30;;;;;;;15.49;100.00;96842.19;5005041;28;20503;-76